Time;durP1;ratioP1;P1;durP2;ratioP2;P2;SDS_P1;SDS_P2;PMS_P1;PMS_P2;Temp;Humidity;BMP_temperature;BMP_pressure;BME280_temperature;BME280_humidity;BME280_pressure;Samples;Min_cycle;Max_cycle;Signal;HPM_P1;HPM_P2
2024/03/10 00:03:43;;;;;;;9.30;4.47;;;;;;;10.01;50.54;98519.03;10340925;28;20485;-59
2024/03/10 00:08:46;;;;;;;10.93;5.40;;;;;;;10.02;50.47;98515.28;10342140;28;20054;-56
2024/03/10 00:13:48;;;;;;;8.57;4.88;;;;;;;10.00;50.84;98517.38;10350513;28;20385;-57
2024/03/10 00:18:52;;;;;;;10.73;4.82;;;;;;;9.99;50.62;98512.22;10355886;28;20061;-61
2024/03/10 00:23:54;;;;;;;13.68;5.90;;;;;;;9.95;50.83;98524.41;10325490;28;20520;-58
2024/03/10 00:28:55;;;;;;;11.98;5.82;;;;;;;9.96;50.87;98540.31;10349098;28;20065;-57
2024/03/10 00:33:58;;;;;;;11.55;5.82;;;;;;;9.97;50.87;98533.06;10346908;28;20058;-56
2024/03/10 00:38:59;;;;;;;10.63;5.15;;;;;;;9.99;50.85;98528.31;10349846;28;20046;-57
2024/03/10 00:44:02;;;;;;;12.07;5.35;;;;;;;9.94;51.00;98523.59;10352115;28;20053;-57
2024/03/10 00:49:04;;;;;;;10.38;5.15;;;;;;;9.93;50.88;98522.78;10345756;28;20459;-57
2024/03/10 00:54:05;;;;;;;10.43;5.35;;;;;;;9.87;51.01;98512.09;10347168;28;20058;-57
2024/03/10 00:59:08;;;;;;;9.45;4.57;;;;;;;9.86;50.99;98513.13;10352294;28;20070;-57
2024/03/10 01:04:09;;;;;;;8.68;4.78;;;;;;;9.84;51.20;98510.66;10351298;28;20054;-57
2024/03/10 01:09:13;;;;;;;8.15;5.15;;;;;;;9.84;51.45;98512.53;10352252;28;20050;-57
2024/03/10 01:14:15;;;;;;;12.52;4.68;;;;;;;9.81;51.26;98518.31;10350890;28;20048;-56
2024/03/10 01:19:16;;;;;;;9.65;4.93;;;;;;;9.79;51.53;98512.34;10346394;28;20057;-56
2024/03/10 01:24:19;;;;;;;9.90;4.75;;;;;;;9.72;51.83;98523.94;10345651;28;20060;-57
2024/03/10 01:29:22;;;;;;;9.30;4.88;;;;;;;9.63;51.86;98519.06;10349136;28;20476;-58
2024/03/10 01:34:24;;;;;;;11.77;5.03;;;;;;;9.52;51.99;98515.19;10346999;28;20164;-57
2024/03/10 01:39:25;;;;;;;11.02;5.20;;;;;;;9.44;52.14;98512.75;10350829;28;20049;-56
2024/03/10 01:44:27;;;;;;;10.20;5.30;;;;;;;9.34;52.47;98499.81;10348644;28;20079;-56
2024/03/10 01:49:30;;;;;;;9.95;5.18;;;;;;;9.12;52.82;98492.09;10345836;28;20056;-56
2024/03/10 01:54:34;;;;;;;8.48;5.00;;;;;;;8.97;53.44;98494.19;10346776;28;20089;-56
2024/03/10 01:59:37;;;;;;;9.10;4.65;;;;;;;8.98;53.13;98479.75;10351685;28;20053;-57
2024/03/10 02:04:39;;;;;;;9.77;5.32;;;;;;;8.93;53.43;98487.63;10346528;28;20046;-56
2024/03/10 02:09:44;;;;;;;8.35;4.03;;;;;;;8.75;54.02;98480.25;10347756;28;20436;-56
2024/03/10 02:15:03;;;;;;;10.07;5.30;;;;;;;8.67;54.22;98486.66;10346781;28;20046;-57
2024/03/10 02:20:14;;;;;;;9.93;4.50;;;;;;;8.71;53.89;98489.75;10343921;28;20064;-57
2024/03/10 02:25:17;;;;;;;10.05;5.43;;;;;;;8.66;54.17;98476.16;10347750;28;20052;-58
2024/03/10 02:30:19;;;;;;;10.73;5.70;;;;;;;8.50;54.32;98472.06;10342041;28;20148;-57
2024/03/10 02:51:21;;;;;;;11.23;4.80;;;;;;;8.53;54.67;98453.72;10338249;28;20509;-58
2024/03/10 02:56:22;;;;;;;9.38;4.85;;;;;;;8.54;55.14;98441.16;10341626;28;20042;-58
2024/03/10 03:01:24;;;;;;;10.30;5.57;;;;;;;8.57;54.79;98434.56;10340722;28;20133;-56
2024/03/10 03:06:26;;;;;;;11.23;5.35;;;;;;;8.58;55.17;98430.84;10336693;28;20038;-56
2024/03/10 03:11:28;;;;;;;11.40;5.43;;;;;;;8.51;55.21;98421.00;10338588;28;20053;-58
2024/03/10 03:16:30;;;;;;;11.68;5.25;;;;;;;8.49;55.50;98415.03;10344437;28;20045;-59
2024/03/10 03:21:33;;;;;;;11.32;6.05;;;;;;;8.47;55.00;98414.41;10344440;28;20531;-59
2024/03/10 03:26:36;;;;;;;13.40;5.63;;;;;;;8.40;55.58;98410.06;10345777;28;20145;-59
2024/03/10 03:31:38;;;;;;;8.60;5.00;;;;;;;8.36;55.80;98404.31;10340509;28;20049;-59
2024/03/10 03:36:41;;;;;;;10.70;5.00;;;;;;;8.33;56.01;98394.84;10336410;28;20420;-58
2024/03/10 03:41:43;;;;;;;10.93;5.50;;;;;;;8.31;56.19;98385.38;10341873;28;20100;-59
2024/03/10 03:46:44;;;;;;;10.27;5.18;;;;;;;8.31;56.00;98374.66;10339109;28;20050;-59
2024/03/10 03:51:45;;;;;;;12.40;6.25;;;;;;;8.29;56.54;98366.88;10335313;28;20466;-59
2024/03/10 03:56:47;;;;;;;16.92;6.32;;;;;;;8.31;56.54;98370.16;10344703;28;20052;-58
2024/03/10 04:01:48;;;;;;;11.75;5.60;;;;;;;8.31;56.71;98363.94;10342809;28;20046;-58
2024/03/10 04:06:50;;;;;;;11.30;5.68;;;;;;;8.24;56.40;98352.47;10340621;28;20053;-58
2024/03/10 04:11:52;;;;;;;14.48;6.45;;;;;;;8.21;56.91;98355.53;10343457;28;20061;-59
2024/03/10 04:16:54;;;;;;;12.32;5.70;;;;;;;8.15;56.70;98338.47;10340723;28;20046;-59
2024/03/10 04:21:56;;;;;;;13.27;6.15;;;;;;;8.10;56.63;98338.28;10335723;28;20045;-56
2024/03/10 04:26:58;;;;;;;14.45;6.40;;;;;;;8.04;56.78;98347.97;10345316;28;20042;-57
2024/03/10 04:31:59;;;;;;;12.07;6.65;;;;;;;7.97;56.69;98343.66;10320426;28;20389;-56
2024/03/10 04:37:01;;;;;;;12.57;5.88;;;;;;;7.88;57.19;98337.72;10339612;28;20537;-56
2024/03/10 04:42:02;;;;;;;12.38;5.88;;;;;;;7.83;57.73;98332.97;10343162;28;20053;-57
2024/03/10 04:47:04;;;;;;;14.70;6.47;;;;;;;7.77;57.49;98333.00;10342150;28;20054;-57
2024/03/10 04:52:09;;;;;;;14.63;6.45;;;;;;;7.74;57.74;98323.53;10342920;28;20140;-58
2024/03/10 04:57:11;;;;;;;13.02;7.03;;;;;;;7.63;57.44;98292.09;10337908;28;20046;-56
2024/03/10 05:02:12;;;;;;;13.95;6.93;;;;;;;7.61;57.75;98304.84;10354078;28;20494;-57
2024/03/10 05:07:14;;;;;;;12.02;6.28;;;;;;;7.60;58.38;98279.94;10331498;28;20124;-56
2024/03/10 05:12:15;;;;;;;14.82;7.15;;;;;;;7.57;58.12;98272.34;10346081;28;20041;-57
2024/03/10 05:17:17;;;;;;;12.77;6.88;;;;;;;7.50;58.87;98255.47;10343405;28;20518;-58
2024/03/10 05:22:18;;;;;;;16.48;7.40;;;;;;;7.50;58.42;98272.38;10346044;28;20046;-57
2024/03/10 05:27:20;;;;;;;13.00;6.68;;;;;;;7.55;58.87;98283.25;10342634;28;20058;-58
2024/03/10 05:32:22;;;;;;;13.30;6.38;;;;;;;7.54;58.36;98270.06;10354124;28;20324;-58
2024/03/10 05:37:23;;;;;;;13.30;6.68;;;;;;;7.58;58.21;98295.38;10343862;28;20124;-59
2024/03/10 05:42:25;;;;;;;16.20;7.45;;;;;;;7.60;59.06;98284.47;10343634;28;20561;-58
2024/03/10 05:47:27;;;;;;;15.93;7.40;;;;;;;7.66;59.28;98297.84;10346642;28;20054;-64
2024/03/10 05:52:28;;;;;;;13.40;6.75;;;;;;;7.80;58.63;98327.22;10399744;28;20045;-60
2024/03/10 05:57:29;;;;;;;15.45;7.53;;;;;;;7.97;58.89;98333.78;10401916;28;20110;-59
2024/03/10 06:02:32;;;;;;;15.30;6.97;;;;;;;8.13;58.42;98336.00;10400073;28;20036;-60
2024/03/10 06:07:34;;;;;;;13.50;5.85;;;;;;;8.21;58.72;98331.47;10402659;28;20026;-60
2024/03/10 06:12:37;;;;;;;13.82;6.75;;;;;;;8.25;58.25;98316.63;10397971;28;20053;-60
2024/03/10 06:17:40;;;;;;;14.75;7.38;;;;;;;8.25;58.45;98305.91;10401207;28;20057;-60
2024/03/10 06:28:03;;;;;;;12.82;6.75;;;;;;;8.19;58.37;98304.09;10395071;28;20042;-60
2024/03/10 06:33:05;;;;;;;17.25;8.32;;;;;;;8.26;58.20;98289.66;10396093;28;20037;-60
2024/03/10 06:38:07;;;;;;;14.35;6.57;;;;;;;8.27;58.76;98312.72;10399835;28;20032;-60
2024/03/10 06:43:08;;;;;;;15.48;7.15;;;;;;;8.41;58.68;98332.25;10371662;28;20050;-60
2024/03/10 06:48:13;;;;;;;13.35;6.10;;;;;;;8.57;58.23;98335.47;10366332;28;20046;-57
2024/03/10 06:53:14;;;;;;;12.40;6.93;;;;;;;8.69;57.83;98333.78;10361872;28;20054;-57
2024/03/10 06:58:17;;;;;;;10.38;6.15;;;;;;;8.74;58.10;98339.31;10362447;28;20046;-57
2024/03/10 07:03:18;;;;;;;14.02;7.72;;;;;;;8.77;58.24;98341.56;10362489;28;20046;-58
2024/03/10 07:08:20;;;;;;;14.43;6.72;;;;;;;8.96;57.83;98331.75;10370833;28;20050;-58
2024/03/10 07:13:22;;;;;;;13.65;6.15;;;;;;;9.12;57.75;98347.34;10364967;28;20072;-59
2024/03/10 07:18:24;;;;;;;15.60;7.65;;;;;;;9.18;57.59;98344.81;10365753;28;20048;-58
2024/03/10 07:23:25;;;;;;;15.95;7.82;;;;;;;9.27;57.60;98347.03;10363936;28;20141;-58
2024/03/10 07:28:27;;;;;;;18.60;7.35;;;;;;;9.40;57.47;98351.47;10360623;28;20058;-57
2024/03/10 07:33:28;;;;;;;14.55;7.72;;;;;;;9.50;57.52;98343.75;10363793;28;20049;-61
2024/03/10 07:38:30;;;;;;;14.98;7.55;;;;;;;9.66;57.28;98336.22;10372713;28;20119;-57
2024/03/10 07:43:31;;;;;;;15.02;6.78;;;;;;;9.79;57.33;98362.09;10365161;28;20049;-57
2024/03/10 07:48:33;;;;;;;12.40;7.10;;;;;;;9.88;56.95;98358.09;10367310;28;20050;-59
2024/03/10 07:53:34;;;;;;;12.98;7.20;;;;;;;9.95;56.84;98363.38;10349074;28;20051;-62
2024/03/10 07:58:36;;;;;;;16.52;7.30;;;;;;;10.00;56.90;98355.50;10342024;28;20058;-62
2024/03/10 08:03:37;;;;;;;11.80;6.78;;;;;;;9.97;56.89;98348.69;10341558;28;20062;-62
2024/03/10 08:08:39;;;;;;;13.40;7.40;;;;;;;9.94;57.02;98325.00;10342992;28;20039;-62
2024/03/10 08:13:40;;;;;;;13.48;7.18;;;;;;;10.16;56.66;98333.44;10338907;28;20141;-62
2024/03/10 08:18:42;;;;;;;14.27;7.80;;;;;;;10.29;56.31;98273.41;10345029;28;20045;-62
2024/03/10 08:23:45;;;;;;;14.32;7.18;;;;;;;10.43;56.33;98256.09;10346963;28;20058;-62
2024/03/10 08:28:47;;;;;;;15.60;8.40;;;;;;;10.57;56.18;98266.69;10335819;28;20060;-62
2024/03/10 08:33:48;;;;;;;17.30;8.18;;;;;;;10.67;55.77;98258.88;10343697;28;20061;-64
2024/03/10 08:38:50;;;;;;;15.65;7.05;;;;;;;10.71;55.46;98239.38;10344672;28;20169;-64
2024/03/10 08:43:53;;;;;;;14.70;7.45;;;;;;;10.81;55.02;98241.50;10345222;28;20065;-65
2024/03/10 08:48:55;;;;;;;14.85;8.27;;;;;;;10.96;54.80;98234.88;10347066;28;20054;-67
2024/03/10 08:53:56;;;;;;;15.40;7.65;;;;;;;11.11;54.81;98240.63;10347990;28;20522;-65
2024/03/10 08:58:58;;;;;;;14.93;7.72;;;;;;;11.36;54.02;98231.56;10349272;28;20042;-66
2024/03/10 09:04:02;;;;;;;14.82;8.55;;;;;;;11.55;53.96;98238.44;10362718;28;20065;-62
2024/03/10 09:09:08;;;;;;;13.73;7.43;;;;;;;11.75;53.44;98258.78;10373583;28;20057;-61
2024/03/10 09:14:09;;;;;;;11.98;7.20;;;;;;;11.94;53.47;98264.88;10360955;28;20132;-62
2024/03/10 09:19:11;;;;;;;16.55;7.43;;;;;;;12.15;52.96;98261.56;10346584;28;20065;-62
2024/03/10 09:24:14;;;;;;;13.73;7.97;;;;;;;12.37;52.54;98258.25;10350960;28;20061;-61
2024/03/10 09:29:18;;;;;;;15.25;7.95;;;;;;;12.61;52.15;98259.78;10356940;28;20402;-59
2024/03/10 09:34:20;;;;;;;15.90;8.60;;;;;;;12.75;51.47;98270.28;10356976;28;20109;-60
2024/03/10 09:39:23;;;;;;;19.58;8.43;;;;;;;12.88;51.29;98251.91;10351489;28;20442;-60
2024/03/10 09:44:26;;;;;;;13.60;7.75;;;;;;;13.06;50.70;98237.38;10362755;28;20072;-59
2024/03/10 09:49:28;;;;;;;12.85;7.93;;;;;;;13.19;50.43;98235.41;10351336;28;20057;-61
2024/03/10 09:54:29;;;;;;;14.25;8.05;;;;;;;13.27;50.13;98221.53;10352693;28;20048;-63
2024/03/10 09:59:44;;;;;;;15.07;8.23;;;;;;;13.54;49.51;98218.19;10348082;28;20053;-61
2024/03/10 10:04:56;;;;;;;14.98;7.97;;;;;;;13.73;49.20;98216.84;10360102;28;20054;-60
2024/03/10 10:10:00;;;;;;;16.40;9.05;;;;;;;13.94;48.67;98207.13;10352858;28;20042;-63
2024/03/10 10:15:07;;;;;;;14.30;8.18;;;;;;;14.07;48.33;98204.03;10345232;28;20046;-64
2024/03/10 10:20:12;;;;;;;12.50;7.68;;;;;;;14.14;48.27;98201.16;10349376;28;20053;-63
2024/03/10 10:25:13;;;;;;;16.02;7.65;;;;;;;14.32;47.92;98210.00;10346645;28;20588;-64
2024/03/10 10:30:22;;;;;;;12.13;7.40;;;;;;;14.65;47.15;98206.31;10345660;28;20068;-64
2024/03/10 10:35:24;;;;;;;13.75;8.43;;;;;;;15.01;46.73;98190.41;10343880;28;20061;-64
2024/03/10 10:40:26;;;;;;;11.82;7.47;;;;;;;15.37;45.92;98190.69;10348448;28;20136;-63
2024/03/10 10:45:27;;;;;;;12.70;7.68;;;;;;;16.04;44.43;98208.94;10341405;28;20042;-64
2024/03/10 10:50:33;;;;;;;15.55;9.00;;;;;;;15.72;44.90;98227.16;10348655;28;20049;-64
2024/03/10 10:55:36;;;;;;;15.00;7.57;;;;;;;15.73;44.98;98213.38;10339986;28;20065;-64
2024/03/10 11:00:42;;;;;;;16.00;9.38;;;;;;;15.75;45.00;98215.84;10338976;28;20077;-63
2024/03/10 11:06:15;;;;;;;13.18;8.05;;;;;;;15.60;45.28;98225.50;10342526;28;20054;-64
2024/03/10 11:11:44;;;;;;;13.18;7.68;;;;;;;15.91;44.65;98201.28;10341032;28;20420;-64
2024/03/10 11:16:46;;;;;;;13.30;7.80;;;;;;;15.83;44.48;98199.91;10340424;28;20054;-64
2024/03/10 11:21:48;;;;;;;15.88;8.68;;;;;;;15.79;44.57;98201.50;10337337;28;20054;-65
2024/03/10 11:27:18;;;;;;;14.25;8.57;;;;;;;15.73;44.79;98183.59;10354892;28;20054;-63
2024/03/10 11:32:35;;;;;;;12.98;8.18;;;;;;;15.73;44.60;98191.72;10364115;28;20056;-64
2024/03/10 11:37:37;;;;;;;13.10;8.48;;;;;;;16.13;44.03;98190.25;10378799;28;20113;-64
2024/03/10 11:42:40;;;;;;;12.93;7.57;;;;;;;16.57;43.02;98176.28;10369380;28;20398;-65
2024/03/10 11:47:41;;;;;;;11.43;7.55;;;;;;;16.41;43.27;98191.72;10355965;28;20057;-65
2024/03/10 11:52:43;;;;;;;13.27;7.85;;;;;;;16.34;43.84;98180.31;10351186;28;20611;-66
2024/03/10 11:57:44;;;;;;;12.50;7.78;;;;;;;16.36;43.55;98170.00;10349055;28;20061;-65
2024/03/10 12:02:46;;;;;;;12.18;7.35;;;;;;;16.31;43.71;98156.47;10347163;28;20137;-65
2024/03/10 12:07:49;;;;;;;12.32;8.20;;;;;;;16.41;43.37;98136.66;10360957;28;20051;-69
2024/03/10 12:12:51;;;;;;;12.38;8.07;;;;;;;16.43;43.53;98148.06;10358883;28;20053;-69
2024/03/10 12:17:53;;;;;;;12.63;7.45;;;;;;;16.48;43.47;98145.34;10365692;28;20101;-60
2024/03/10 12:22:56;;;;;;;13.18;8.38;;;;;;;16.48;43.56;98148.06;10385505;28;20041;-60
2024/03/10 12:27:59;;;;;;;14.15;8.82;;;;;;;16.51;43.86;98141.28;10382239;28;20373;-58
2024/03/10 12:33:04;;;;;;;13.35;8.10;;;;;;;16.96;42.66;98126.13;10370443;28;20328;-59
2024/03/10 12:38:06;;;;;;;12.38;7.68;;;;;;;17.21;42.34;98123.38;10361646;28;20112;-58
2024/03/10 12:43:08;;;;;;;13.55;8.70;;;;;;;17.38;41.91;98125.00;10358853;28;20045;-61
2024/03/10 12:48:09;;;;;;;11.45;7.35;;;;;;;18.66;40.11;98124.38;10368199;28;20046;-60
2024/03/10 12:53:13;;;;;;;10.45;7.22;;;;;;;19.95;37.88;98116.56;10364707;28;20061;-61
2024/03/10 12:58:14;;;;;;;12.18;7.13;;;;;;;19.53;38.69;98129.06;10370055;28;20050;-61
2024/03/10 13:03:16;;;;;;;11.98;6.88;;;;;;;21.04;36.02;98119.31;10352466;28;20054;-61
2024/03/10 13:08:17;;;;;;;9.13;6.22;;;;;;;25.66;29.75;98104.41;10369576;28;20665;-61
2024/03/10 13:13:19;;;;;;;8.75;6.22;;;;;;;27.38;27.74;98110.84;10355522;28;20050;-61
2024/03/10 13:18:21;;;;;;;9.73;6.10;;;;;;;26.23;29.29;98114.94;10379312;28;20050;-61
2024/03/10 13:23:23;;;;;;;10.23;6.20;;;;;;;24.01;31.43;98113.63;10353850;28;20061;-61
2024/03/10 13:28:25;;;;;;;8.43;6.55;;;;;;;22.61;33.28;98131.25;10372327;28;20062;-61
2024/03/10 13:33:28;;;;;;;10.68;7.22;;;;;;;21.55;34.28;98123.88;10368181;28;20050;-61
2024/03/10 13:38:31;;;;;;;10.07;6.93;;;;;;;21.92;33.91;98102.91;10347789;28;20100;-61
2024/03/10 13:43:33;;;;;;;9.55;6.93;;;;;;;25.08;29.86;98107.50;10364192;28;20050;-62
2024/03/10 13:48:34;;;;;;;7.10;5.35;;;;;;;24.29;31.00;98105.91;10389891;28;20054;-61
2024/03/10 13:53:36;;;;;;;8.20;5.80;;;;;;;22.59;32.87;98120.63;10375489;28;20062;-62
2024/03/10 13:58:42;;;;;;;6.63;4.97;;;;;;;21.42;33.95;98126.56;10378914;28;20044;-61
2024/03/10 14:03:44;;;;;;;7.53;4.70;;;;;;;20.68;34.02;98113.66;10388618;28;20060;-62
2024/03/10 14:08:45;;;;;;;5.32;4.20;;;;;;;20.03;34.52;98095.22;10389951;28;20050;-58
2024/03/10 14:13:48;;;;;;;5.97;4.55;;;;;;;19.58;34.83;98079.91;10353684;28;20054;-58
2024/03/10 14:18:50;;;;;;;6.47;4.18;;;;;;;19.10;35.37;98081.84;10341157;28;20521;-64
2024/03/10 14:23:52;;;;;;;6.18;4.13;;;;;;;18.71;35.58;98099.84;10357334;28;20157;-58
2024/03/10 14:28:55;;;;;;;6.97;4.38;;;;;;;18.32;36.34;98133.31;10341873;28;20070;-58
2024/03/10 14:33:57;;;;;;;6.13;4.57;;;;;;;17.99;36.73;98143.84;10356244;28;20110;-57
2024/03/10 14:39:00;;;;;;;6.80;4.63;;;;;;;17.75;37.17;98137.38;10332012;28;20046;-58
2024/03/10 14:44:02;;;;;;;6.60;4.22;;;;;;;17.62;37.36;98131.44;10350968;28;20050;-61
2024/03/10 14:49:08;;;;;;;5.85;4.30;;;;;;;17.51;37.58;98116.25;10353828;28;20065;-57
2024/03/10 14:54:11;;;;;;;6.10;4.40;;;;;;;17.34;37.96;98126.66;10363746;28;20050;-60
2024/03/10 14:59:12;;;;;;;6.25;4.60;;;;;;;17.17;38.14;98137.78;10344487;28;20049;-58
2024/03/10 15:04:14;;;;;;;7.90;4.47;;;;;;;17.08;38.62;98140.25;10349623;28;20054;-58
2024/03/10 15:09:16;;;;;;;9.60;5.80;;;;;;;17.03;38.75;98137.53;10349178;28;20065;-60
2024/03/10 15:14:19;;;;;;;8.80;4.80;;;;;;;16.93;38.90;98142.97;10359835;28;20150;-59
2024/03/10 15:19:21;;;;;;;7.97;5.22;;;;;;;16.88;39.29;98142.97;10350722;28;20045;-62
2024/03/10 15:24:23;;;;;;;8.05;5.30;;;;;;;16.77;39.38;98153.00;10350476;28;20042;-61
2024/03/10 15:29:25;;;;;;;7.93;5.05;;;;;;;16.68;39.74;98146.47;10351295;28;20065;-58
2024/03/10 15:34:29;;;;;;;9.20;5.75;;;;;;;16.58;40.04;98158.91;10354553;28;20124;-58
2024/03/10 15:39:31;;;;;;;6.82;4.40;;;;;;;16.51;40.44;98163.81;10355813;28;20057;-60
2024/03/10 15:44:35;;;;;;;7.45;4.80;;;;;;;16.45;40.23;98171.13;10346568;28;20409;-59
2024/03/10 15:49:37;;;;;;;8.73;4.78;;;;;;;16.34;40.34;98174.88;10352555;28;20482;-59
2024/03/10 15:54:38;;;;;;;7.35;4.72;;;;;;;16.22;40.72;98167.00;10334199;28;20132;-59
2024/03/10 15:59:43;;;;;;;7.00;4.10;;;;;;;16.19;40.54;98172.13;10357458;28;20046;-61
2024/03/10 16:04:48;;;;;;;9.07;4.80;;;;;;;16.14;40.67;98174.84;10344563;28;20077;-64
2024/03/10 16:09:50;;;;;;;9.05;5.38;;;;;;;16.08;41.04;98170.47;10342979;28;20038;-65
2024/03/10 16:14:52;;;;;;;11.27;7.00;;;;;;;16.00;41.28;98183.44;10341986;28;20056;-64
2024/03/10 16:19:54;;;;;;;10.38;5.90;;;;;;;15.86;41.60;98201.28;10341687;28;20058;-64
2024/03/10 16:24:57;;;;;;;8.70;5.60;;;;;;;15.74;41.94;98215.03;10338605;28;20050;-64
2024/03/10 16:29:58;;;;;;;9.10;6.38;;;;;;;15.67;42.20;98222.53;10341860;28;20046;-65
2024/03/10 16:35:00;;;;;;;11.02;5.75;;;;;;;15.64;42.04;98218.47;10347229;28;20074;-64
2024/03/10 16:40:09;;;;;;;11.05;6.05;;;;;;;15.57;42.45;98215.16;10341259;28;20061;-65
2024/03/10 16:45:16;;;;;;;11.30;6.43;;;;;;;15.51;42.70;98208.09;10338798;28;20042;-65
2024/03/10 16:50:23;;;;;;;12.48;6.75;;;;;;;15.44;43.10;98210.19;10343933;28;20058;-65
2024/03/10 16:55:25;;;;;;;;;;;;;;;15.35;43.00;98195.53;10351652;28;20046;-65
2024/03/10 17:00:29;;;;;;;25.75;11.75;;;;;;;15.24;43.47;98198.19;10352485;28;20408;-65
2024/03/10 17:05:36;;;;;;;17.83;9.40;;;;;;;15.16;44.16;98198.63;10347018;28;20057;-64
2024/03/10 17:10:38;;;;;;;16.75;8.80;;;;;;;14.96;44.76;98199.28;10350241;28;20060;-65
2024/03/10 17:15:42;;;;;;;19.08;10.90;;;;;;;14.77;45.42;98200.72;10348620;28;20092;-65
2024/03/10 17:20:44;;;;;;;24.73;13.85;;;;;;;14.58;45.99;98209.22;10347521;28;20046;-64
2024/03/10 17:25:45;;;;;;;24.08;13.23;;;;;;;14.39;46.58;98219.53;10343127;28;20051;-65
2024/03/10 17:30:47;;;;;;;24.65;13.90;;;;;;;14.27;47.08;98224.25;10349041;28;20074;-65
2024/03/10 17:35:49;;;;;;;24.75;13.57;;;;;;;14.17;47.47;98218.75;10344151;28;20050;-62
2024/03/10 17:40:52;;;;;;;27.33;15.90;;;;;;;14.09;47.71;98223.50;10350718;28;20042;-61
2024/03/10 17:45:53;;;;;;;31.23;16.00;;;;;;;13.93;48.46;98226.28;10351036;28;20081;-61
2024/03/10 17:50:55;;;;;;;31.73;16.13;;;;;;;13.73;49.03;98224.94;10346944;28;20056;-62
2024/03/10 17:55:58;;;;;;;29.35;16.38;;;;;;;13.53;49.46;98222.78;10345050;28;20521;-62
2024/03/10 18:01:01;;;;;;;27.65;15.80;;;;;;;13.41;49.59;98238.25;10344798;28;20046;-63
2024/03/10 18:06:05;;;;;;;27.08;16.33;;;;;;;13.26;49.98;98234.19;10344933;28;20038;-62
2024/03/10 18:11:09;;;;;;;27.98;15.70;;;;;;;13.22;49.82;98249.25;10340181;28;20054;-63
2024/03/10 18:16:12;;;;;;;29.52;17.25;;;;;;;13.14;50.19;98244.25;10344126;28;20058;-62
2024/03/10 18:21:14;;;;;;;28.52;15.90;;;;;;;13.04;50.34;98249.50;10348092;28;20137;-65
2024/03/10 18:26:16;;;;;;;29.05;17.42;;;;;;;12.99;50.47;98260.97;10346617;28;20050;-64
2024/03/10 18:31:19;;;;;;;34.13;16.98;;;;;;;12.90;50.78;98275.94;10343869;28;20057;-66
2024/03/10 18:36:22;;;;;;;29.85;17.55;;;;;;;12.80;51.11;98271.19;10340532;28;20481;-64
2024/03/10 18:41:23;;;;;;;28.55;17.13;;;;;;;12.75;51.24;98270.28;10348681;28;20056;-64
2024/03/10 18:46:25;;;;;;;27.67;16.10;;;;;;;12.73;51.61;98275.09;10350281;28;20057;-64
2024/03/10 18:51:26;;;;;;;30.70;18.17;;;;;;;12.65;51.79;98273.59;10343615;28;20054;-64
2024/03/10 18:56:28;;;;;;;32.75;18.13;;;;;;;12.56;52.01;98270.47;10339750;28;20050;-65
2024/03/10 19:01:31;;;;;;;34.88;17.85;;;;;;;12.54;52.34;98278.00;10347083;28;20057;-65
2024/03/10 19:06:34;;;;;;;34.00;18.98;;;;;;;12.59;52.55;98279.94;10347942;28;20152;-64
2024/03/10 19:11:38;;;;;;;29.70;17.48;;;;;;;12.55;52.32;98290.38;10341370;28;20054;-65
2024/03/10 19:16:40;;;;;;;29.23;16.65;;;;;;;12.52;52.47;98307.06;10340627;28;20670;-64
2024/03/10 19:21:42;;;;;;;27.60;15.82;;;;;;;12.48;52.50;98301.31;10344473;28;20058;-66
2024/03/10 19:26:44;;;;;;;30.58;17.45;;;;;;;12.45;53.01;98315.25;10342875;28;20464;-65
2024/03/10 19:31:46;;;;;;;33.80;17.30;;;;;;;12.37;53.38;98312.13;10348531;28;20054;-64
2024/03/10 19:36:52;;;;;;;32.13;17.33;;;;;;;12.21;54.11;98322.56;10331309;28;20054;-64
2024/03/10 19:41:55;;;;;;;32.65;17.27;;;;;;;12.15;53.88;98320.03;10342843;28;20058;-65
2024/03/10 19:46:57;;;;;;;34.75;18.05;;;;;;;12.21;53.87;98316.38;10342705;28;20054;-64
2024/03/10 19:51:59;;;;;;;33.25;17.52;;;;;;;12.25;53.99;98322.94;10338804;28;20475;-65
2024/03/10 19:57:04;;;;;;;29.20;17.80;;;;;;;12.21;54.03;98319.06;10343253;28;20061;-64
2024/03/10 20:02:06;;;;;;;31.50;18.17;;;;;;;12.30;53.76;98328.41;10347073;28;20061;-64
2024/03/10 20:07:08;;;;;;;35.38;19.55;;;;;;;12.34;53.69;98334.94;10342980;28;20060;-65
2024/03/10 20:12:10;;;;;;;29.83;18.33;;;;;;;12.36;53.82;98337.41;10341984;28;20054;-66
2024/03/10 20:17:12;;;;;;;33.08;18.90;;;;;;;12.27;53.92;98355.84;10338606;28;20045;-65
2024/03/10 20:22:14;;;;;;;30.98;17.77;;;;;;;12.18;54.15;98354.53;10344000;28;20120;-66
2024/03/10 20:27:16;;;;;;;34.13;17.88;;;;;;;12.28;54.20;98346.69;10347166;28;20050;-63
2024/03/10 20:32:18;;;;;;;33.05;18.25;;;;;;;12.34;54.33;98350.31;10352028;28;20080;-64
2024/03/10 20:37:20;;;;;;;33.85;18.05;;;;;;;12.34;54.41;98353.00;10344896;28;20133;-63
2024/03/10 20:42:22;;;;;;;31.75;17.73;;;;;;;12.30;54.38;98350.78;10324708;28;20062;-58
2024/03/10 20:47:24;;;;;;;39.25;19.85;;;;;;;12.32;54.19;98344.34;10333743;28;20113;-57
2024/03/10 20:52:26;;;;;;;32.92;18.90;;;;;;;12.30;54.47;98345.41;10349945;28;20134;-58
2024/03/10 20:57:27;;;;;;;30.52;17.65;;;;;;;12.33;54.68;98348.69;10349972;28;20069;-58
2024/03/10 21:02:29;;;;;;;32.47;18.08;;;;;;;12.23;54.78;98351.97;10346071;28;20053;-60
2024/03/10 21:07:30;;;;;;;38.10;20.67;;;;;;;12.17;55.54;98358.31;10346249;28;20512;-58
2024/03/10 21:12:32;;;;;;;37.28;18.80;;;;;;;12.04;56.43;98362.84;10349696;28;20521;-58
2024/03/10 21:17:33;;;;;;;38.15;20.70;;;;;;;11.89;56.92;98368.72;10349889;28;20053;-58
2024/03/10 21:22:35;;;;;;;34.55;19.98;;;;;;;11.75;57.95;98367.28;10343239;28;20097;-59
2024/03/10 21:27:43;;;;;;;38.80;19.58;;;;;;;11.64;58.01;98370.78;10344289;28;20059;-58
2024/03/10 21:32:45;;;;;;;35.45;20.40;;;;;;;11.58;58.25;98375.22;10351515;28;20046;-59
2024/03/10 21:37:47;;;;;;;38.13;20.65;;;;;;;11.55;58.62;98377.53;10347141;28;20083;-60
2024/03/10 21:42:49;;;;;;;42.08;20.98;;;;;;;11.46;58.93;98385.13;10345873;28;20046;-58
2024/03/10 21:47:50;;;;;;;39.50;22.10;;;;;;;11.37;59.63;98402.66;10348751;28;20054;-58
2024/03/10 21:52:52;;;;;;;39.50;20.33;;;;;;;11.25;60.13;98408.78;10346342;28;20050;-59
2024/03/10 21:57:54;;;;;;;38.20;20.92;;;;;;;11.14;60.52;98411.44;10347825;28;20120;-60
2024/03/10 22:02:56;;;;;;;42.00;23.08;;;;;;;11.09;61.10;98417.50;10348084;28;20050;-60
2024/03/10 22:07:58;;;;;;;44.40;22.63;;;;;;;10.99;61.51;98419.91;10344008;28;20051;-60
2024/03/10 22:12:59;;;;;;;40.22;21.45;;;;;;;10.94;61.86;98423.31;10349605;28;20053;-60
2024/03/10 22:18:01;;;;;;;48.75;23.08;;;;;;;10.87;62.24;98425.25;10346454;28;20088;-60
2024/03/10 22:23:04;;;;;;;41.25;20.83;;;;;;;10.71;62.84;98438.22;10343206;28;20050;-60
2024/03/10 22:28:05;;;;;;;42.53;22.63;;;;;;;10.66;63.64;98445.31;10345305;28;20046;-60
2024/03/10 22:33:07;;;;;;;37.83;19.75;;;;;;;10.45;64.38;98450.09;10342503;28;20050;-60
2024/03/10 22:38:08;;;;;;;28.85;15.55;;;;;;;10.21;65.33;98467.00;10339061;28;20084;-60
2024/03/10 22:43:10;;;;;;;29.20;14.20;;;;;;;10.09;66.19;98454.31;10343134;28;20137;-61
2024/03/10 22:48:11;;;;;;;31.02;15.68;;;;;;;10.13;66.25;98466.25;10344404;28;20058;-61
2024/03/10 22:53:13;;;;;;;31.30;15.13;;;;;;;10.02;66.68;98461.59;10341253;28;20058;-61
2024/03/10 22:58:14;;;;;;;26.27;13.95;;;;;;;9.99;67.03;98464.75;10347657;28;20050;-62
2024/03/10 23:03:15;;;;;;;25.20;13.68;;;;;;;9.91;67.75;98463.16;10343009;28;20042;-59
2024/03/10 23:08:20;;;;;;;25.15;13.45;;;;;;;9.93;68.05;98465.59;10342416;28;20130;-60
2024/03/10 23:13:22;;;;;;;26.25;13.23;;;;;;;9.91;68.63;98462.31;10346517;28;20421;-61
2024/03/10 23:18:24;;;;;;;27.80;14.15;;;;;;;9.94;69.12;98456.50;10341601;28;20050;-60
2024/03/10 23:23:27;;;;;;;30.30;14.55;;;;;;;9.86;69.90;98468.34;10345411;28;20050;-62
2024/03/10 23:28:31;;;;;;;34.95;16.20;;;;;;;9.86;70.25;98462.16;10341455;28;20061;-60
2024/03/10 23:33:33;;;;;;;26.90;14.02;;;;;;;9.84;70.77;98459.69;10340436;28;20136;-61
2024/03/10 23:38:34;;;;;;;30.65;15.48;;;;;;;9.85;71.17;98460.50;10342776;28;20141;-60